KLPR

Lorain County Regional Airport

Lorain/Elyria, Ohio, USA
METAR KLPR 231953Z AUTO 32018KT 10SM FEW034 BKN055 10/01 A3017 RMK AO2 SLP220 T01000006
Observed Flight Rules
Oct-23 @ 19:53 UTC (an hour ago) Visual Flight Rules
Wind Visibility Clouds
320° at 18 knots 10 miles
  • Few at 3,400' AGL
  • Broken at 5,500' AGL
Temperatures Readings
Current 10°C / 50°F
Dewpoint 1°C / 34°F
Humidity 54%
Altimeter 30.17" Hg
Pressure 1022 hPa
Elevation 241
METAR KLPR 231953Z AUTO 32018KT 10SM FEW034 BKN055 10/01 A3017 RMK AO2 SLP220 T01000006
Observed Flight Rules
Oct-23 @ 19:53 UTC
(an hour ago)
VFR
Wind Visibility
320° at 18 knots 10 miles
Clouds
  • Few at 3,400' AGL
  • Broken at 5,500' AGL
Temperature Dewpoint
10°C / 50°F 1°C / 34°F
Humidity Altimeter Pressure
54% 30.17" Hg 1022 hPa